Colerain, OH

10:52 AM EDT on July 26, 2014 (GMT -0400)
Clever (KPHD) Elev 892 ft | 40.47 °N, 81.42 °W | Change Station

Current weather conditions updated 59 minutes ago

Clear
Clear
74 °F
Feels Like 74 °F
N
6
Wind Variable Wind from SW

Today is forecast to be Much Warmer than yesterday. Thunderstorms tonight.

Today
High -- | Low -- °F
--% Chance of Precip.
Yesterday
High -- | Low -- °F
Precip. -- in
6:15 AM 8:42 PM
Waning Crescent, 0% visible
Pressure 29.98 in
Visibility 10.0 miles
Clouds Clear
Dew Point 63 °F
Humidity 68%
Rainfall 0.01 in
Snow Depth Not available.
UV 5 out of 12
Pollen 6.30 out of 12
Air Quality Not available.
Flu Activity Not available.
METAR KPHD 261353Z AUTO 23005KT 10SM CLR 23/17 A2999 RMK AO2 SLP150 T02330172

More Conditions Fewer Conditions

Pressure 29.98 in
Visibility 10.0 miles
Clouds Clear
Dew Point 63 °F
Humidity 68%
Rainfall 0.01 in
Snow Depth Not available.
UV 5 out of 12
Pollen 6.30 out of 12
Air Quality Not available.
Flu Activity Not available.
METAR KPHD 261353Z AUTO 23005KT 10SM CLR 23/17 A2999 RMK AO2 SLP150 T02330172

More Conditions Fewer Conditions

10-Day Weather Forecast

Almanac

Astronomy

Jul. 26, 2014 Rise Set
Actual Time 6:15 AM EDT 8:42 PM EDT
Civil Twilight 5:44 AM EDT 9:13 PM EDT
Nautical Twilight 5:06 AM EDT 9:51 PM EDT
Astronomical Twilight 4:23 AM EDT 10:34 PM EDT
Moon 6:06 AM EDT 8:16 PM EDT
Length of Visible Light 15h 28m
Length of Day
14h 27m
Tomorrow will be 1m 48s shorter.
Waning Crescent, 0% of the Moon is Illuminated
Today
Waning Crescent
Jul 26
New
Aug 3
First Quarter
Aug 10
Full
Aug 17
Last Quarter

Today's Extremes

State Highs State Lows

Community

WunderPhotos

Upload Photos

1,737,593 photos uploaded!

Nearby

Snow Depth

Station Depth Elevation
No new snow has been reported.

Earthquake Activity

City Distance Mag. Time & Date
No recent earthquake activity has been reported nearby.
Minimum magnitude displayed is 2.5.

Coastal Water Temperatures

Place Temperature
No Stations Reporting

Nearby Weather Stations

Station Location Temp. Heat Index Dew Point Humidity Wind Precip. Elev Updated Type
Crawford Heights, Martins Ferry, OH 83.3 °F 85 °F 66 °F 56% WNW  at  4.7 mph - / hr 1109 ft 10:43 AM EDT Normal
Whitmar Hills, Wheeling, WV 76.0 °F 78 °F 66 °F 72% WNW  at  0.0 mph 0.00 in / hr 1060 ft 10:50 AM EDT Normal
Shadyside, Ohio, Shadyside, OH 78.5 °F 80 °F 65 °F 64% SSW  at  1.0 mph 0.00 in / hr 669 ft 10:52 AM EDT Rapid Fire
Clinton Hills, Triadelphia, WV 77.9 °F 80 °F 63 °F 61% NNW  at  4.2 mph - / hr 1122 ft 10:46 AM EDT Normal
West Alexander, West Alexander, PA 76.1 °F 78 °F 64 °F 66% SW  at  7.3 mph - / hr 1191 ft 10:49 AM EDT Normal
Sunset Gardens, Wintersville, OH 75.4 °F 77 °F 64 °F 68% WSW  at  0.0 mph 0.00 in / hr 1150 ft 10:50 AM EDT Normal
Jerusalem, Jerusalem, OH 75.4 °F 77 °F 63 °F 66% SW  at  9.6 mph 0.00 in / hr 1253 ft 10:52 AM EDT Rapid Fire

Show More Stations Show Fewer Stations